createdAt,value
2022-08-30T00:02:03.157Z,23.38
2022-08-30T00:07:04.988Z,23.34
2022-08-30T00:12:06.839Z,23.30
2022-08-30T00:17:08.473Z,23.26
2022-08-30T00:22:10.221Z,23.21
2022-08-30T00:27:12.107Z,23.18
2022-08-30T00:32:13.790Z,23.14
2022-08-30T00:37:15.470Z,23.11
2022-08-30T00:42:18.895Z,23.08
2022-08-30T00:47:21.063Z,23.05
2022-08-30T00:52:23.871Z,23.02
2022-08-30T00:57:25.751Z,22.99
2022-08-30T01:02:30.858Z,22.95
2022-08-30T01:07:35.536Z,22.92
2022-08-30T01:12:39.051Z,22.89
2022-08-30T01:17:43.922Z,22.85
2022-08-30T01:23:12.889Z,22.80
2022-08-30T01:28:20.905Z,22.78
2022-08-30T01:33:23.284Z,22.73
2022-08-30T01:38:28.776Z,22.69
2022-08-30T01:43:30.301Z,22.63
2022-08-30T01:48:32.358Z,22.61
2022-08-30T01:53:33.970Z,22.57
2022-08-30T01:58:37.158Z,22.53
2022-08-30T02:03:40.905Z,22.49
2022-08-30T02:08:43.512Z,22.44
2022-08-30T02:13:46.579Z,22.39
2022-08-30T02:18:49.004Z,22.34
2022-08-30T02:23:51.795Z,22.28
2022-08-30T02:28:54.076Z,22.23
2022-08-30T02:33:57.264Z,22.17
2022-08-30T02:38:58.942Z,22.12
2022-08-30T02:44:00.884Z,22.08
2022-08-30T02:49:23.708Z,22.05
2022-08-30T02:54:24.848Z,22.02
2022-08-30T02:59:26.952Z,21.99
2022-08-30T03:04:28.622Z,21.96
2022-08-30T03:09:30.279Z,21.93
2022-08-30T03:14:32.196Z,21.89
2022-08-30T03:19:36.493Z,21.85
2022-08-30T03:24:38.418Z,21.82
2022-08-30T03:29:40.049Z,21.80
2022-08-30T03:34:41.772Z,21.77
2022-08-30T03:39:45.577Z,21.76
2022-08-30T03:44:47.258Z,21.73
2022-08-30T03:49:48.986Z,21.71
2022-08-30T03:54:50.619Z,21.67
2022-08-30T03:59:52.486Z,21.66
2022-08-30T04:04:54.126Z,21.65
2022-08-30T04:09:55.818Z,21.64
2022-08-30T04:14:57.492Z,21.63
2022-08-30T04:19:59.284Z,21.62
2022-08-30T04:25:00.973Z,21.60
2022-08-30T04:30:02.657Z,21.58
2022-08-30T04:35:05.710Z,21.56
2022-08-30T04:40:08.552Z,21.54
2022-08-30T04:45:14.827Z,21.52
2022-08-30T04:50:19.687Z,21.52
2022-08-30T04:55:21.906Z,21.50
2022-08-30T05:00:23.784Z,21.50
2022-08-30T05:05:40.480Z,21.51
2022-08-30T05:10:45.470Z,21.52
2022-08-30T05:15:48.690Z,21.55
2022-08-30T05:20:50.348Z,21.57
2022-08-30T05:25:52.041Z,21.59
2022-08-30T05:30:53.698Z,21.61
2022-08-30T05:35:55.320Z,21.65
2022-08-30T05:40:56.924Z,21.68
2022-08-30T05:46:03.611Z,21.72
2022-08-30T05:51:11.617Z,21.77
2022-08-30T05:56:15.364Z,21.81
2022-08-30T06:01:29.193Z,21.85
2022-08-30T06:06:33.386Z,21.92
2022-08-30T06:11:36.151Z,21.96
2022-08-30T06:16:39.870Z,22.00
2022-08-30T06:21:43.463Z,22.04
2022-08-30T06:26:47.226Z,22.10
2022-08-30T06:31:48.900Z,22.16
2022-08-30T06:36:50.557Z,22.23
2022-08-30T06:41:52.151Z,22.31
2022-08-30T06:47:12.104Z,22.39
2022-08-30T06:52:13.661Z,22.45
2022-08-30T06:57:15.556Z,22.55
2022-08-30T07:02:17.224Z,22.64
2022-08-30T07:07:18.911Z,22.72
2022-08-30T07:12:21.042Z,22.81
2022-08-30T07:17:41.603Z,22.92
2022-08-30T07:22:43.194Z,23.05
2022-08-30T07:27:46.067Z,23.15
2022-08-30T07:32:47.915Z,23.28
2022-08-30T07:37:49.803Z,23.35
2022-08-30T07:42:52.693Z,23.46
2022-08-30T07:47:54.300Z,23.56
2022-08-30T07:52:55.942Z,23.64
2022-08-30T07:57:57.596Z,23.73
2022-08-30T08:03:05.480Z,23.86
2022-08-30T08:08:07.484Z,23.96
2022-08-30T08:13:09.377Z,24.05
2022-08-30T08:18:11.081Z,24.14
2022-08-30T08:23:12.725Z,24.26
2022-08-30T08:28:14.390Z,24.37
2022-08-30T08:33:17.079Z,24.48
2022-08-30T08:38:18.798Z,24.61
2022-08-30T08:43:25.542Z,24.72
2022-08-30T08:48:58.570Z,24.86
2022-08-30T08:54:31.071Z,25.01
2022-08-30T08:59:32.758Z,25.14
2022-08-30T09:04:37.926Z,25.28
2022-08-30T09:09:42.269Z,25.41
2022-08-30T09:14:51.575Z,25.54
2022-08-30T09:20:00.167Z,25.67
2022-08-30T09:25:08.548Z,25.82
2022-08-30T09:30:15.218Z,25.92
2022-08-30T09:35:23.995Z,26.06
2022-08-30T09:40:31.697Z,26.20
2022-08-30T09:45:40.775Z,26.34
2022-08-30T09:50:46.331Z,26.49
2022-08-30T09:56:33.145Z,26.62
2022-08-30T10:01:46.212Z,26.75
2022-08-30T10:06:58.041Z,26.87
2022-08-30T10:12:15.468Z,26.97
2022-08-30T10:17:50.568Z,27.10
2022-08-30T10:23:02.403Z,27.26
2022-08-30T10:28:14.683Z,27.43
2022-08-30T10:33:36.268Z,27.52
2022-08-30T10:38:40.671Z,27.65
2022-08-30T10:44:16.451Z,27.74
2022-08-30T10:49:25.067Z,27.76
2022-08-30T10:54:40.931Z,27.78
2022-08-30T10:59:48.264Z,27.79
2022-08-30T11:05:34.622Z,27.79
2022-08-30T11:11:01.762Z,27.71
2022-08-30T11:16:15.759Z,27.70
2022-08-30T11:21:17.735Z,27.71
2022-08-30T11:26:45.245Z,27.75
2022-08-30T11:31:47.630Z,27.74
2022-08-30T11:36:53.109Z,27.74
2022-08-30T11:42:33.634Z,27.63
2022-08-30T11:47:51.452Z,27.63
2022-08-30T11:53:38.844Z,27.67
2022-08-30T11:58:48.626Z,27.76
2022-08-30T12:04:15.031Z,27.83
2022-08-30T12:09:23.960Z,27.91
2022-08-30T12:14:55.101Z,27.90
2022-08-30T12:19:59.765Z,27.89
2022-08-30T12:25:02.855Z,27.97
2022-08-30T12:30:10.011Z,28.07
2022-08-30T12:35:20.963Z,28.16
2022-08-30T12:40:24.558Z,28.31
2022-08-30T12:45:33.417Z,28.45
2022-08-30T12:50:54.556Z,28.59
2022-08-30T12:56:15.406Z,28.80
2022-08-30T13:01:24.560Z,29.01
2022-08-30T13:06:53.414Z,29.17
2022-08-30T13:11:58.387Z,29.35
2022-08-30T13:17:07.684Z,29.53
2022-08-30T13:22:29.985Z,29.67
2022-08-30T13:27:32.915Z,29.83
2022-08-30T13:32:39.170Z,29.95
2022-08-30T13:37:47.372Z,30.09
2022-08-30T13:42:52.579Z,30.18
2022-08-30T13:47:55.941Z,30.18
2022-08-30T13:52:58.250Z,30.14
2022-08-30T13:57:59.839Z,30.09
2022-08-30T14:03:02.614Z,30.03
2022-08-30T14:08:05.813Z,29.98
2022-08-30T14:13:10.149Z,29.95
2022-08-30T14:18:17.190Z,29.91
2022-08-30T14:23:19.520Z,29.90
2022-08-30T14:28:21.669Z,29.89
2022-08-30T14:33:23.991Z,29.91
2022-08-30T14:38:25.928Z,29.95
2022-08-30T14:43:27.487Z,30.08
2022-08-30T14:48:29.129Z,30.18
2022-08-30T14:53:32.046Z,30.05
2022-08-30T14:58:34.505Z,29.98
2022-08-30T15:03:38.478Z,29.98
2022-08-30T15:08:40.367Z,29.99
2022-08-30T15:13:44.459Z,29.97
2022-08-30T15:18:46.935Z,29.98
2022-08-30T15:23:49.595Z,29.97
2022-08-30T15:28:52.529Z,29.96
2022-08-30T15:33:54.222Z,29.98
2022-08-30T15:38:56.444Z,29.99
2022-08-30T15:43:59.537Z,30.08
2022-08-30T15:49:06.990Z,30.19
2022-08-30T15:54:11.610Z,30.28
2022-08-30T15:59:18.510Z,30.34
2022-08-30T16:04:20.389Z,30.40
2022-08-30T16:09:22.695Z,30.43
2022-08-30T16:14:24.689Z,30.40
2022-08-30T16:19:26.867Z,30.34
2022-08-30T16:24:31.629Z,30.26
2022-08-30T16:29:33.286Z,30.17
2022-08-30T16:34:35.839Z,30.10
2022-08-30T16:39:38.970Z,30.04
2022-08-30T16:44:40.589Z,30.00
2022-08-30T16:49:42.771Z,29.96
2022-08-30T16:54:44.473Z,29.88
2022-08-30T16:59:46.095Z,29.88
2022-08-30T17:04:52.913Z,29.94
2022-08-30T17:09:54.979Z,29.99
2022-08-30T17:14:57.459Z,30.01
2022-08-30T17:19:59.203Z,30.00
2022-08-30T17:25:01.719Z,29.94
2022-08-30T17:30:06.512Z,29.78
2022-08-30T17:35:09.370Z,29.53
2022-08-30T17:40:14.740Z,29.33
2022-08-30T17:45:17.238Z,29.18
2022-08-30T17:50:19.579Z,29.06
2022-08-30T17:55:21.722Z,28.89
2022-08-30T18:00:23.961Z,28.74
2022-08-30T18:05:26.021Z,28.63
2022-08-30T18:10:31.459Z,28.48
2022-08-30T18:15:36.326Z,28.36
2022-08-30T18:20:40.476Z,28.23
2022-08-30T18:25:42.430Z,28.12
2022-08-30T18:30:45.884Z,27.99
2022-08-30T18:35:49.221Z,27.87
2022-08-30T18:40:52.297Z,27.76
2022-08-30T18:45:54.611Z,27.63
2022-08-30T18:50:56.314Z,27.53
2022-08-30T18:55:58.033Z,27.41
2022-08-30T19:00:59.707Z,27.31
2022-08-30T19:06:06.962Z,27.21
2022-08-30T19:11:10.459Z,27.11
2022-08-30T19:16:13.268Z,27.05
2022-08-30T19:21:16.267Z,26.97
2022-08-30T19:26:19.238Z,26.89
2022-08-30T19:31:20.831Z,26.79
2022-08-30T19:36:22.551Z,26.68
2022-08-30T19:41:25.415Z,26.57
2022-08-30T19:46:26.978Z,26.45
2022-08-30T19:51:28.825Z,26.36
2022-08-30T19:56:34.069Z,26.28
2022-08-30T20:01:35.798Z,26.20
2022-08-30T20:06:37.535Z,26.12
2022-08-30T20:11:39.763Z,26.06
2022-08-30T20:16:42.059Z,26.01
2022-08-30T20:21:44.433Z,25.96
2022-08-30T20:26:46.111Z,25.91
2022-08-30T20:31:49.028Z,25.87
2022-08-30T20:36:52.285Z,25.82
2022-08-30T20:41:57.205Z,25.78
2022-08-30T20:46:58.967Z,25.72
2022-08-30T20:52:00.749Z,25.66
2022-08-30T20:57:07.092Z,25.62
2022-08-30T21:02:09.202Z,25.56
2022-08-30T21:07:12.628Z,25.47
2022-08-30T21:12:14.297Z,25.43
2022-08-30T21:17:16.122Z,25.36
2022-08-30T21:22:17.801Z,25.31
2022-08-30T21:27:21.340Z,25.26
2022-08-30T21:32:23.078Z,25.19
2022-08-30T21:37:25.384Z,25.14
2022-08-30T21:42:27.665Z,25.09
2022-08-30T21:47:29.319Z,25.01
2022-08-30T21:52:31.028Z,24.94
2022-08-30T21:57:33.024Z,24.86
2022-08-30T22:02:34.878Z,24.82
2022-08-30T22:07:37.653Z,24.77
2022-08-30T22:12:39.627Z,24.70
2022-08-30T22:17:43.393Z,24.62
2022-08-30T22:22:45.112Z,24.56
2022-08-30T22:27:46.770Z,24.48
2022-08-30T22:32:48.687Z,24.41
2022-08-30T22:37:53.632Z,24.35
2022-08-30T22:42:55.636Z,24.28
2022-08-30T22:47:58.118Z,24.22
2022-08-30T22:52:59.883Z,24.16
2022-08-30T22:58:01.561Z,24.11
2022-08-30T23:03:04.197Z,24.07
2022-08-30T23:08:07.085Z,24.02
2022-08-30T23:13:08.961Z,23.99
2022-08-30T23:18:10.708Z,23.95
2022-08-30T23:23:31.188Z,23.91
2022-08-30T23:28:51.726Z,23.86
2022-08-30T23:34:11.928Z,23.79
2022-08-30T23:39:32.391Z,23.74
2022-08-30T23:44:53.229Z,23.69
2022-08-30T23:50:13.742Z,23.63
2022-08-30T23:55:34.303Z,23.57
